createdAt,value
2019-05-29T00:02:57.339Z,75.18
2019-05-29T00:08:06.177Z,75.54
2019-05-29T00:13:14.765Z,76.83
2019-05-29T00:18:22.180Z,76.70
2019-05-29T00:23:29.552Z,76.92
2019-05-29T00:28:36.970Z,77.74
2019-05-29T00:33:45.560Z,77.77
2019-05-29T00:38:53.007Z,79.50
2019-05-29T00:44:00.458Z,79.96
2019-05-29T00:49:07.881Z,79.56
2019-05-29T00:54:16.455Z,79.46
2019-05-29T00:59:23.956Z,79.24
2019-05-29T01:04:31.287Z,78.94
2019-05-29T01:09:38.648Z,78.78
2019-05-29T01:14:50.158Z,78.63
2019-05-29T01:19:55.295Z,79.46
2019-05-29T01:25:02.643Z,78.62
2019-05-29T01:30:11.065Z,79.06
2019-05-29T01:35:19.925Z,77.94
2019-05-29T01:40:29.447Z,78.10
2019-05-29T01:45:36.494Z,77.49
2019-05-29T01:50:44.214Z,78.09
2019-05-29T01:55:51.608Z,77.72
2019-05-29T02:00:58.966Z,77.58
2019-05-29T02:06:06.353Z,76.47
2019-05-29T02:11:14.969Z,76.53
2019-05-29T02:16:22.869Z,76.76
2019-05-29T02:21:30.313Z,76.73
2019-05-29T02:26:37.731Z,76.14
2019-05-29T02:31:45.079Z,77.61
2019-05-29T02:36:52.431Z,78.79
2019-05-29T02:41:59.810Z,78.06
2019-05-29T02:47:07.211Z,79.68
2019-05-29T02:52:14.635Z,78.84
2019-05-29T02:57:22.843Z,78.73
2019-05-29T03:02:31.879Z,78.87
2019-05-29T03:07:39.430Z,78.06
2019-05-29T03:12:47.667Z,77.49
2019-05-29T03:17:54.985Z,78.28
2019-05-29T03:23:02.465Z,78.68
2019-05-29T03:28:10.037Z,78.54
2019-05-29T03:33:17.539Z,78.00
2019-05-29T03:38:26.069Z,78.38
2019-05-29T03:43:35.795Z,78.29
2019-05-29T03:48:42.595Z,77.91
2019-05-29T03:53:49.981Z,78.62
2019-05-29T03:58:57.380Z,79.24
2019-05-29T04:04:04.876Z,79.28
2019-05-29T04:09:12.297Z,79.74
2019-05-29T04:14:19.755Z,79.87
2019-05-29T04:19:30.112Z,79.80
2019-05-29T04:24:41.214Z,79.45
2019-05-29T04:29:50.898Z,78.05
2019-05-29T04:34:59.007Z,77.32
2019-05-29T04:40:07.634Z,77.42
2019-05-29T04:45:15.475Z,76.87
2019-05-29T04:50:23.264Z,76.82
2019-05-29T04:55:32.686Z,75.45
2019-05-29T05:00:40.688Z,74.78
2019-05-29T05:05:48.246Z,75.61
2019-05-29T05:10:55.663Z,77.07
2019-05-29T05:16:04.968Z,76.21
2019-05-29T05:21:12.378Z,74.83
2019-05-29T05:26:19.828Z,75.34
2019-05-29T05:31:27.265Z,75.44
2019-05-29T05:36:34.775Z,76.67
2019-05-29T05:41:42.101Z,76.50
2019-05-29T05:46:49.624Z,74.82
2019-05-29T05:51:57.108Z,75.75
2019-05-29T05:57:04.412Z,76.42
2019-05-29T06:02:11.833Z,76.75
2019-05-29T06:07:19.337Z,76.06
2019-05-29T06:12:26.893Z,76.82
2019-05-29T06:17:34.471Z,76.36
2019-05-29T06:22:43.501Z,74.27
2019-05-29T06:27:51.010Z,74.76
2019-05-29T06:32:58.301Z,75.22
2019-05-29T06:38:05.796Z,75.56
2019-05-29T06:43:23.561Z,75.63
2019-05-29T06:48:42.912Z,75.09
2019-05-29T06:53:41.764Z,76.23
2019-05-29T06:58:50.214Z,75.95
2019-05-29T07:04:11.376Z,72.95
2019-05-29T07:09:08.641Z,75.08
2019-05-29T07:14:16.051Z,72.45
2019-05-29T07:19:32.790Z,73.56
2019-05-29T07:24:33.151Z,69.71
2019-05-29T07:29:41.137Z,70.41
2019-05-29T07:35:02.265Z,69.88
2019-05-29T07:39:57.893Z,66.49
2019-05-29T07:45:05.903Z,67.38
2019-05-29T07:50:14.188Z,67.51
2019-05-29T07:55:23.615Z,65.99
2019-05-29T08:00:35.691Z,67.63
2019-05-29T08:05:41.086Z,65.12
2019-05-29T08:10:49.779Z,65.47
2019-05-29T08:16:02.557Z,67.36
2019-05-29T08:21:06.177Z,66.24
2019-05-29T08:26:13.671Z,65.87
2019-05-29T08:31:21.220Z,66.92
2019-05-29T08:36:28.512Z,66.93
2019-05-29T08:41:36.006Z,66.66
2019-05-29T08:47:01.466Z,60.52
2019-05-29T08:51:52.411Z,62.92
2019-05-29T08:56:59.717Z,62.39
2019-05-29T09:02:07.535Z,62.34
2019-05-29T09:07:14.849Z,62.49
2019-05-29T09:12:22.500Z,60.56
2019-05-29T09:17:30.081Z,54.33
2019-05-29T09:22:37.721Z,56.00
2019-05-29T09:27:45.440Z,56.12
2019-05-29T09:32:53.905Z,56.89
2019-05-29T09:38:03.144Z,57.85
2019-05-29T09:43:10.784Z,58.28
2019-05-29T09:48:21.681Z,61.49
2019-05-29T09:53:27.759Z,60.38
2019-05-29T09:58:35.221Z,59.60
2019-05-29T10:03:42.576Z,59.56
2019-05-29T10:08:50.149Z,60.42
2019-05-29T10:13:58.820Z,56.36
2019-05-29T10:19:07.523Z,55.60
2019-05-29T10:24:15.674Z,57.32
2019-05-29T10:29:23.318Z,58.73
2019-05-29T10:34:31.444Z,56.33
2019-05-29T10:39:38.873Z,56.24
2019-05-29T10:44:46.915Z,53.39
2019-05-29T10:49:54.647Z,53.17
2019-05-29T10:55:02.454Z,51.54
2019-05-29T11:00:11.868Z,51.94
2019-05-29T11:05:19.760Z,52.99
2019-05-29T11:10:27.164Z,52.38
2019-05-29T11:15:35.604Z,50.51
2019-05-29T11:20:43.286Z,46.46
2019-05-29T11:25:52.074Z,51.43
2019-05-29T11:31:06.267Z,51.43
2019-05-29T11:36:12.929Z,51.96
2019-05-29T11:41:26.202Z,49.69
2019-05-29T11:46:27.840Z,46.86
2019-05-29T11:51:35.990Z,48.81
2019-05-29T11:56:43.449Z,50.94
2019-05-29T12:01:52.934Z,51.67
2019-05-29T12:07:01.561Z,48.60
2019-05-29T12:12:08.947Z,48.65
2019-05-29T12:17:16.327Z,47.20
2019-05-29T12:22:24.099Z,47.57
2019-05-29T12:27:31.466Z,45.27
2019-05-29T12:32:38.948Z,45.60
2019-05-29T12:37:46.788Z,43.85
2019-05-29T12:42:55.639Z,41.72
2019-05-29T12:48:11.035Z,36.76
2019-05-29T12:53:28.870Z,39.94
2019-05-29T12:58:23.816Z,39.48
2019-05-29T13:03:32.147Z,35.33
2019-05-29T13:08:39.656Z,35.81
2019-05-29T13:13:47.431Z,34.14
2019-05-29T13:18:55.263Z,33.81
2019-05-29T13:24:04.376Z,32.91
2019-05-29T13:29:12.795Z,32.14
2019-05-29T13:34:20.169Z,30.67
2019-05-29T13:39:29.887Z,30.36
2019-05-29T13:44:36.875Z,30.88
2019-05-29T13:49:44.283Z,32.29
2019-05-29T13:54:51.844Z,33.13
2019-05-29T14:00:17.064Z,31.51
2019-05-29T14:05:15.118Z,29.04
2019-05-29T14:10:24.715Z,27.72
2019-05-29T14:15:32.276Z,28.68
2019-05-29T14:20:39.908Z,25.31
2019-05-29T14:25:50.157Z,26.81
2019-05-29T14:30:57.620Z,26.62
2019-05-29T14:36:05.971Z,26.32
2019-05-29T14:41:14.610Z,26.58
2019-05-29T14:46:22.241Z,24.96
2019-05-29T14:51:29.770Z,28.05
2019-05-29T14:56:37.559Z,27.53
2019-05-29T15:01:45.675Z,28.58
2019-05-29T15:06:53.235Z,27.40
2019-05-29T15:12:03.995Z,30.47
2019-05-29T15:17:13.033Z,32.62
2019-05-29T15:22:20.714Z,34.16
2019-05-29T15:27:28.666Z,32.75
2019-05-29T15:32:36.178Z,33.98
2019-05-29T15:37:44.043Z,30.94
2019-05-29T15:42:51.489Z,29.69
2019-05-29T15:47:59.044Z,33.39
2019-05-29T15:53:07.075Z,31.14
2019-05-29T15:58:15.380Z,31.47
2019-05-29T16:03:22.782Z,32.98
2019-05-29T16:08:30.614Z,36.63
2019-05-29T16:13:38.072Z,37.24
2019-05-29T16:18:45.949Z,40.53
2019-05-29T16:23:53.957Z,36.87
2019-05-29T16:29:02.067Z,39.34
2019-05-29T16:34:09.851Z,36.63
2019-05-29T16:39:19.244Z,39.20
2019-05-29T16:44:29.428Z,43.11
2019-05-29T16:49:36.657Z,43.40
2019-05-29T16:54:44.095Z,41.58
2019-05-29T16:59:51.427Z,42.47
2019-05-29T17:04:59.939Z,41.92
2019-05-29T17:10:07.716Z,40.81
2019-05-29T17:15:17.150Z,42.88
2019-05-29T17:20:41.243Z,44.28
2019-05-29T17:25:48.685Z,43.98
2019-05-29T17:30:56.171Z,43.90
2019-05-29T17:36:03.663Z,45.20
2019-05-29T17:41:11.061Z,48.43
2019-05-29T17:46:19.722Z,47.64
2019-05-29T17:51:27.141Z,49.43
2019-05-29T17:56:36.980Z,53.26
2019-05-29T18:01:43.592Z,53.67
2019-05-29T18:06:56.455Z,55.26
2019-05-29T18:12:02.770Z,55.77
2019-05-29T18:17:10.170Z,56.68
2019-05-29T18:22:17.617Z,57.82
2019-05-29T18:27:26.017Z,57.89
2019-05-29T18:32:33.574Z,58.36
2019-05-29T18:37:41.236Z,58.36
2019-05-29T18:42:48.597Z,59.76
2019-05-29T18:47:56.015Z,60.17
2019-05-29T18:53:03.481Z,60.47
2019-05-29T18:58:10.894Z,61.72
2019-05-29T19:03:18.392Z,61.69
2019-05-29T19:08:25.926Z,62.20
2019-05-29T19:13:36.704Z,62.62
2019-05-29T19:18:42.876Z,62.86
2019-05-29T19:23:50.279Z,63.41
2019-05-29T19:28:57.777Z,64.64
2019-05-29T19:34:05.254Z,63.51
2019-05-29T19:39:13.638Z,64.12
2019-05-29T19:44:21.073Z,65.47
2019-05-29T19:49:28.887Z,66.28
2019-05-29T19:54:36.293Z,64.79
2019-05-29T19:59:43.689Z,63.77
2019-05-29T20:04:51.132Z,65.88
2019-05-29T20:09:58.581Z,65.22
2019-05-29T20:15:08.064Z,63.80
2019-05-29T20:20:15.836Z,64.82
2019-05-29T20:25:23.103Z,63.69
2019-05-29T20:30:30.666Z,65.98
2019-05-29T20:35:39.153Z,65.30
2019-05-29T20:40:46.744Z,66.07
2019-05-29T20:45:54.147Z,66.30
2019-05-29T20:51:01.587Z,65.58
2019-05-29T20:56:08.983Z,66.62
2019-05-29T21:01:16.506Z,67.06
2019-05-29T21:06:24.028Z,66.46
2019-05-29T21:11:31.386Z,65.26
2019-05-29T21:16:39.771Z,65.57
2019-05-29T21:21:47.350Z,64.19
2019-05-29T21:26:54.703Z,65.05
2019-05-29T21:32:02.164Z,66.44
2019-05-29T21:37:09.544Z,65.86
2019-05-29T21:42:16.968Z,66.74
2019-05-29T21:47:24.397Z,65.09
2019-05-29T21:52:31.799Z,65.07
2019-05-29T21:57:42.283Z,66.13
2019-05-29T22:02:48.616Z,66.61
2019-05-29T22:07:56.126Z,66.39
2019-05-29T22:13:03.657Z,66.63
2019-05-29T22:18:11.104Z,65.04
2019-05-29T22:23:18.460Z,64.57
2019-05-29T22:28:25.872Z,66.38
2019-05-29T22:33:33.245Z,66.57
2019-05-29T22:38:40.644Z,66.93
2019-05-29T22:43:48.116Z,65.61
2019-05-29T22:48:55.887Z,65.00
2019-05-29T22:54:03.351Z,66.17
2019-05-29T22:59:10.722Z,65.67
2019-05-29T23:04:18.133Z,66.81
2019-05-29T23:09:26.513Z,66.33
2019-05-29T23:14:34.819Z,67.20
2019-05-29T23:19:42.117Z,66.13
2019-05-29T23:24:49.470Z,66.68
2019-05-29T23:29:56.863Z,65.77
2019-05-29T23:35:04.475Z,65.39
2019-05-29T23:40:12.011Z,67.59
2019-05-29T23:45:19.588Z,68.25
2019-05-29T23:50:26.948Z,66.91
2019-05-29T23:55:34.370Z,66.03
